sensor_id;sensor_type;location;lat;lon;timestamp;pressure;altitude;pressure_sealevel;temperature;humidity
10948;BME280;5526;42.070;24.752;2023-05-03T00:00:44;99507.03;;;12.78;62.50
10948;BME280;5526;42.070;24.752;2023-05-03T00:03:11;99511.75;;;12.76;62.66
10948;BME280;5526;42.070;24.752;2023-05-03T00:05:40;99496.75;;;12.86;62.41
10948;BME280;5526;42.070;24.752;2023-05-03T00:08:08;99495.66;;;12.77;62.88
10948;BME280;5526;42.070;24.752;2023-05-03T00:10:35;99499.38;;;12.81;62.91
10948;BME280;5526;42.070;24.752;2023-05-03T00:13:02;99500.72;;;12.89;62.67
10948;BME280;5526;42.070;24.752;2023-05-03T00:15:29;99500.19;;;12.82;62.93
10948;BME280;5526;42.070;24.752;2023-05-03T00:17:57;99496.47;;;12.78;63.56
10948;BME280;5526;42.070;24.752;2023-05-03T00:20:25;99512.81;;;12.80;63.77
10948;BME280;5526;42.070;24.752;2023-05-03T00:22:53;99508.06;;;12.77;64.15
10948;BME280;5526;42.070;24.752;2023-05-03T00:25:20;99505.47;;;12.87;63.78
10948;BME280;5526;42.070;24.752;2023-05-03T00:27:48;99509.72;;;12.93;63.64
10948;BME280;5526;42.070;24.752;2023-05-03T00:30:15;99501.53;;;12.89;63.67
10948;BME280;5526;42.070;24.752;2023-05-03T00:32:43;99495.44;;;12.89;63.32
10948;BME280;5526;42.070;24.752;2023-05-03T00:35:11;99492.72;;;12.74;63.79
10948;BME280;5526;42.070;24.752;2023-05-03T00:37:38;99504.31;;;12.68;64.49
10948;BME280;5526;42.070;24.752;2023-05-03T00:40:08;99513.53;;;12.65;64.93
10948;BME280;5526;42.070;24.752;2023-05-03T00:42:35;99503.78;;;12.66;65.06
10948;BME280;5526;42.070;24.752;2023-05-03T00:45:03;99497.72;;;12.70;65.26
10948;BME280;5526;42.070;24.752;2023-05-03T00:47:31;99501.16;;;12.71;65.21
10948;BME280;5526;42.070;24.752;2023-05-03T00:49:59;99504.84;;;12.70;65.41
10948;BME280;5526;42.070;24.752;2023-05-03T00:52:26;99503.50;;;12.67;66.01
10948;BME280;5526;42.070;24.752;2023-05-03T00:54:54;99489.50;;;12.67;66.44
10948;BME280;5526;42.070;24.752;2023-05-03T00:57:25;99490.59;;;12.71;66.40
10948;BME280;5526;42.070;24.752;2023-05-03T00:59:54;99494.81;;;12.72;66.26
10948;BME280;5526;42.070;24.752;2023-05-03T01:02:22;99495.63;;;12.72;66.08
10948;BME280;5526;42.070;24.752;2023-05-03T01:04:49;99498.53;;;12.71;66.37
10948;BME280;5526;42.070;24.752;2023-05-03T01:07:22;99495.31;;;12.69;67.22
10948;BME280;5526;42.070;24.752;2023-05-03T01:10:00;99497.66;;;12.60;68.29
10948;BME280;5526;42.070;24.752;2023-05-03T01:12:38;99491.56;;;12.60;69.16
10948;BME280;5526;42.070;24.752;2023-05-03T01:15:14;99488.38;;;12.58;69.54
10948;BME280;5526;42.070;24.752;2023-05-03T01:17:48;99487.28;;;12.54;70.53
10948;BME280;5526;42.070;24.752;2023-05-03T01:20:20;99487.56;;;12.52;70.65
10948;BME280;5526;42.070;24.752;2023-05-03T01:22:56;99474.38;;;12.52;70.16
10948;BME280;5526;42.070;24.752;2023-05-03T01:25:27;99477.19;;;12.41;71.67
10948;BME280;5526;42.070;24.752;2023-05-03T01:27:55;99475.88;;;12.43;72.80
10948;BME280;5526;42.070;24.752;2023-05-03T01:30:26;99480.91;;;12.45;73.71
10948;BME280;5526;42.070;24.752;2023-05-03T01:33:00;99486.69;;;12.42;75.05
10948;BME280;5526;42.070;24.752;2023-05-03T01:35:35;99485.09;;;12.41;74.30
10948;BME280;5526;42.070;24.752;2023-05-03T01:38:02;99493.56;;;12.43;74.20
10948;BME280;5526;42.070;24.752;2023-05-03T01:40:37;99498.88;;;12.48;75.12
10948;BME280;5526;42.070;24.752;2023-05-03T01:43:07;99483.97;;;12.32;76.60
10948;BME280;5526;42.070;24.752;2023-05-03T01:45:35;99467.84;;;12.28;77.11
10948;BME280;5526;42.070;24.752;2023-05-03T01:48:08;99466.59;;;12.36;76.93
10948;BME280;5526;42.070;24.752;2023-05-03T01:50:35;99466.56;;;12.31;77.78
10948;BME280;5526;42.070;24.752;2023-05-03T01:53:02;99462.53;;;12.23;78.59
10948;BME280;5526;42.070;24.752;2023-05-03T01:55:29;99472.00;;;12.19;78.54
10948;BME280;5526;42.070;24.752;2023-05-03T01:57:58;99458.03;;;12.19;77.89
10948;BME280;5526;42.070;24.752;2023-05-03T02:00:25;99459.66;;;12.25;76.93
10948;BME280;5526;42.070;24.752;2023-05-03T02:02:53;99463.41;;;12.34;76.53
10948;BME280;5526;42.070;24.752;2023-05-03T02:05:20;99458.66;;;12.31;76.55
10948;BME280;5526;42.070;24.752;2023-05-03T02:07:47;99459.66;;;12.30;75.91
10948;BME280;5526;42.070;24.752;2023-05-03T02:10:15;99461.84;;;12.38;74.59
10948;BME280;5526;42.070;24.752;2023-05-03T02:12:42;99457.13;;;12.40;74.55
10948;BME280;5526;42.070;24.752;2023-05-03T02:15:11;99455.81;;;12.42;74.38
10948;BME280;5526;42.070;24.752;2023-05-03T02:17:41;99464.81;;;12.46;74.04
10948;BME280;5526;42.070;24.752;2023-05-03T02:20:08;99464.53;;;12.43;74.17
10948;BME280;5526;42.070;24.752;2023-05-03T02:22:36;99472.47;;;12.43;73.94
10948;BME280;5526;42.070;24.752;2023-05-03T02:25:04;99472.38;;;12.33;73.57
10948;BME280;5526;42.070;24.752;2023-05-03T02:27:32;99470.22;;;12.30;73.28
10948;BME280;5526;42.070;24.752;2023-05-03T02:29:59;99474.63;;;12.19;73.51
10948;BME280;5526;42.070;24.752;2023-05-03T02:32:28;99467.78;;;12.18;73.20
10948;BME280;5526;42.070;24.752;2023-05-03T02:34:55;99468.00;;;12.12;73.41
10948;BME280;5526;42.070;24.752;2023-05-03T02:37:22;99468.03;;;12.17;73.64
10948;BME280;5526;42.070;24.752;2023-05-03T02:39:49;99460.59;;;12.14;73.20
10948;BME280;5526;42.070;24.752;2023-05-03T02:42:17;99461.16;;;12.16;72.93
10948;BME280;5526;42.070;24.752;2023-05-03T02:44:44;99455.63;;;12.17;72.56
10948;BME280;5526;42.070;24.752;2023-05-03T02:47:11;99451.63;;;12.15;72.57
10948;BME280;5526;42.070;24.752;2023-05-03T02:49:40;99456.38;;;12.13;72.88
10948;BME280;5526;42.070;24.752;2023-05-03T02:52:07;99466.44;;;12.16;73.01
10948;BME280;5526;42.070;24.752;2023-05-03T02:54:35;99479.63;;;12.16;73.00
10948;BME280;5526;42.070;24.752;2023-05-03T02:57:02;99495.22;;;12.17;73.30
10948;BME280;5526;42.070;24.752;2023-05-03T02:59:29;99494.13;;;12.13;73.65
10948;BME280;5526;42.070;24.752;2023-05-03T03:01:57;99491.09;;;12.00;74.40
10948;BME280;5526;42.070;24.752;2023-05-03T03:04:24;99494.97;;;11.92;75.26
10948;BME280;5526;42.070;24.752;2023-05-03T03:06:53;99496.84;;;11.92;75.77
10948;BME280;5526;42.070;24.752;2023-05-03T03:09:21;99492.00;;;11.84;76.27
10948;BME280;5526;42.070;24.752;2023-05-03T03:11:50;99485.63;;;11.80;76.05
10948;BME280;5526;42.070;24.752;2023-05-03T03:14:18;99493.56;;;11.80;76.40
10948;BME280;5526;42.070;24.752;2023-05-03T03:16:45;99492.78;;;11.84;76.56
10948;BME280;5526;42.070;24.752;2023-05-03T03:19:12;99498.56;;;11.81;76.80
10948;BME280;5526;42.070;24.752;2023-05-03T03:21:39;99493.38;;;11.91;76.63
10948;BME280;5526;42.070;24.752;2023-05-03T03:24:08;99491.56;;;11.92;76.63
10948;BME280;5526;42.070;24.752;2023-05-03T03:26:36;99484.75;;;11.96;76.48
10948;BME280;5526;42.070;24.752;2023-05-03T03:29:03;99485.22;;;11.93;76.50
10948;BME280;5526;42.070;24.752;2023-05-03T03:31:30;99495.97;;;11.86;76.72
10948;BME280;5526;42.070;24.752;2023-05-03T03:33:58;99504.16;;;11.85;76.43
10948;BME280;5526;42.070;24.752;2023-05-03T03:36:25;99515.22;;;11.87;76.28
10948;BME280;5526;42.070;24.752;2023-05-03T03:38:52;99521.84;;;11.89;76.09
10948;BME280;5526;42.070;24.752;2023-05-03T03:41:21;99528.31;;;11.77;76.45
10948;BME280;5526;42.070;24.752;2023-05-03T03:43:48;99531.19;;;11.75;76.23
10948;BME280;5526;42.070;24.752;2023-05-03T03:46:15;99521.50;;;11.81;75.92
10948;BME280;5526;42.070;24.752;2023-05-03T03:48:43;99520.47;;;11.82;76.06
10948;BME280;5526;42.070;24.752;2023-05-03T03:51:10;99533.69;;;11.87;75.87
10948;BME280;5526;42.070;24.752;2023-05-03T03:53:37;99535.88;;;11.95;75.39
10948;BME280;5526;42.070;24.752;2023-05-03T03:56:04;99533.84;;;12.02;75.02
10948;BME280;5526;42.070;24.752;2023-05-03T03:58:34;99531.69;;;11.99;75.17
10948;BME280;5526;42.070;24.752;2023-05-03T04:01:01;99561.28;;;12.01;75.81
10948;BME280;5526;42.070;24.752;2023-05-03T04:03:29;99553.75;;;11.88;77.35
10948;BME280;5526;42.070;24.752;2023-05-03T04:05:56;99555.75;;;11.76;78.49
10948;BME280;5526;42.070;24.752;2023-05-03T04:08:24;99553.03;;;11.71;79.72
10948;BME280;5526;42.070;24.752;2023-05-03T04:10:53;99560.44;;;11.74;80.90
10948;BME280;5526;42.070;24.752;2023-05-03T04:13:20;99563.91;;;11.74;81.06
10948;BME280;5526;42.070;24.752;2023-05-03T04:15:48;99569.22;;;11.79;81.75
10948;BME280;5526;42.070;24.752;2023-05-03T04:18:19;99571.47;;;11.92;82.49
10948;BME280;5526;42.070;24.752;2023-05-03T04:20:46;99572.63;;;12.01;82.55
10948;BME280;5526;42.070;24.752;2023-05-03T04:23:14;99579.59;;;12.12;82.55
10948;BME280;5526;42.070;24.752;2023-05-03T04:25:42;99590.75;;;12.19;82.44
10948;BME280;5526;42.070;24.752;2023-05-03T04:28:13;99607.91;;;12.22;82.62
10948;BME280;5526;42.070;24.752;2023-05-03T04:30:40;99622.72;;;12.23;83.59
10948;BME280;5526;42.070;24.752;2023-05-03T04:33:09;99618.53;;;12.27;84.19
10948;BME280;5526;42.070;24.752;2023-05-03T04:35:36;99631.97;;;12.25;83.74
10948;BME280;5526;42.070;24.752;2023-05-03T04:38:03;99624.38;;;12.07;84.93
10948;BME280;5526;42.070;24.752;2023-05-03T04:40:30;99638.44;;;12.13;86.08
10948;BME280;5526;42.070;24.752;2023-05-03T04:42:57;99634.47;;;12.10;86.35
10948;BME280;5526;42.070;24.752;2023-05-03T04:45:25;99639.25;;;12.13;87.40
10948;BME280;5526;42.070;24.752;2023-05-03T04:47:52;99642.16;;;12.17;87.61
10948;BME280;5526;42.070;24.752;2023-05-03T04:50:21;99642.13;;;12.12;88.71
10948;BME280;5526;42.070;24.752;2023-05-03T04:52:48;99647.09;;;12.08;90.19
10948;BME280;5526;42.070;24.752;2023-05-03T04:55:15;99660.19;;;11.98;91.44
10948;BME280;5526;42.070;24.752;2023-05-03T04:57:42;99656.09;;;11.91;92.78
10948;BME280;5526;42.070;24.752;2023-05-03T05:00:10;99671.59;;;11.82;93.61
10948;BME280;5526;42.070;24.752;2023-05-03T05:02:38;99673.72;;;11.85;94.55
10948;BME280;5526;42.070;24.752;2023-05-03T05:05:06;99680.09;;;11.89;95.29
10948;BME280;5526;42.070;24.752;2023-05-03T05:07:35;99684.09;;;11.92;96.62
10948;BME280;5526;42.070;24.752;2023-05-03T05:10:02;99690.53;;;12.01;96.88
10948;BME280;5526;42.070;24.752;2023-05-03T05:12:29;99696.69;;;12.06;97.12
10948;BME280;5526;42.070;24.752;2023-05-03T05:14:56;99694.28;;;12.05;98.77
10948;BME280;5526;42.070;24.752;2023-05-03T05:17:24;99688.88;;;12.16;98.92
10948;BME280;5526;42.070;24.752;2023-05-03T05:19:51;99679.41;;;12.20;99.02
10948;BME280;5526;42.070;24.752;2023-05-03T05:22:18;99679.06;;;12.12;99.80
10948;BME280;5526;42.070;24.752;2023-05-03T05:24:47;99675.56;;;12.06;100.00
10948;BME280;5526;42.070;24.752;2023-05-03T05:27:14;99677.44;;;12.11;100.00
10948;BME280;5526;42.070;24.752;2023-05-03T05:29:41;99673.78;;;12.12;100.00
10948;BME280;5526;42.070;24.752;2023-05-03T05:32:08;99674.41;;;12.19;100.00
10948;BME280;5526;42.070;24.752;2023-05-03T05:34:35;99678.19;;;12.28;100.00
10948;BME280;5526;42.070;24.752;2023-05-03T05:37:02;99675.34;;;12.34;100.00
10948;BME280;5526;42.070;24.752;2023-05-03T05:39:30;99676.69;;;12.37;100.00
10948;BME280;5526;42.070;24.752;2023-05-03T05:41:58;99671.41;;;12.37;100.00
10948;BME280;5526;42.070;24.752;2023-05-03T05:44:25;99671.91;;;12.34;100.00
10948;BME280;5526;42.070;24.752;2023-05-03T05:46:53;99638.72;;;12.16;100.00
10948;BME280;5526;42.070;24.752;2023-05-03T05:49:20;99660.63;;;12.38;100.00
10948;BME280;5526;42.070;24.752;2023-05-03T05:51:47;99659.13;;;12.47;100.00
10948;BME280;5526;42.070;24.752;2023-05-03T05:54:14;99653.84;;;12.47;100.00
10948;BME280;5526;42.070;24.752;2023-05-03T05:56:41;99654.19;;;12.56;100.00
10948;BME280;5526;42.070;24.752;2023-05-03T05:59:09;99653.00;;;12.68;100.00
10948;BME280;5526;42.070;24.752;2023-05-03T06:01:36;99663.88;;;12.77;99.74
10948;BME280;5526;42.070;24.752;2023-05-03T06:04:09;99658.69;;;12.87;98.36
10948;BME280;5526;42.070;24.752;2023-05-03T06:06:36;99657.97;;;12.96;97.46
10948;BME280;5526;42.070;24.752;2023-05-03T06:09:03;99648.81;;;13.04;95.51
10948;BME280;5526;42.070;24.752;2023-05-03T06:11:31;99648.56;;;13.06;93.44
10948;BME280;5526;42.070;24.752;2023-05-03T06:13:58;99651.53;;;13.14;93.00
10948;BME280;5526;42.070;24.752;2023-05-03T06:16:29;99653.94;;;13.16;93.03
10948;BME280;5526;42.070;24.752;2023-05-03T06:18:56;99670.09;;;13.24;93.38
10948;BME280;5526;42.070;24.752;2023-05-03T06:21:24;99675.09;;;13.21;93.29
10948;BME280;5526;42.070;24.752;2023-05-03T06:23:52;99668.53;;;13.28;93.41
10948;BME280;5526;42.070;24.752;2023-05-03T06:26:19;99666.50;;;13.40;93.14
10948;BME280;5526;42.070;24.752;2023-05-03T06:28:46;99665.28;;;13.58;91.26
10948;BME280;5526;42.070;24.752;2023-05-03T06:31:13;99661.13;;;13.67;89.64
10948;BME280;5526;42.070;24.752;2023-05-03T06:33:42;99665.34;;;13.68;89.00
10948;BME280;5526;42.070;24.752;2023-05-03T06:36:09;99652.94;;;13.73;89.47
10948;BME280;5526;42.070;24.752;2023-05-03T06:38:36;99650.31;;;13.78;89.00
10948;BME280;5526;42.070;24.752;2023-05-03T06:41:03;99635.75;;;13.71;87.83
10948;BME280;5526;42.070;24.752;2023-05-03T06:43:30;99654.28;;;13.76;87.47
10948;BME280;5526;42.070;24.752;2023-05-03T06:45:57;99655.41;;;13.90;86.60
10948;BME280;5526;42.070;24.752;2023-05-03T06:48:25;99644.09;;;14.14;85.26
10948;BME280;5526;42.070;24.752;2023-05-03T06:50:53;99641.28;;;14.26;84.15
10948;BME280;5526;42.070;24.752;2023-05-03T06:53:21;99627.53;;;14.29;84.17
10948;BME280;5526;42.070;24.752;2023-05-03T06:55:48;99632.56;;;14.45;84.11
10948;BME280;5526;42.070;24.752;2023-05-03T06:58:15;99643.16;;;14.35;82.73
10948;BME280;5526;42.070;24.752;2023-05-03T07:00:42;99639.75;;;14.60;83.69
10948;BME280;5526;42.070;24.752;2023-05-03T07:03:10;99636.31;;;14.79;81.66
10948;BME280;5526;42.070;24.752;2023-05-03T07:05:37;99633.66;;;14.99;79.87
10948;BME280;5526;42.070;24.752;2023-05-03T07:08:05;99629.41;;;14.98;79.08
10948;BME280;5526;42.070;24.752;2023-05-03T07:10:33;99637.84;;;15.30;78.27
10948;BME280;5526;42.070;24.752;2023-05-03T07:13:01;99641.06;;;15.37;77.22
10948;BME280;5526;42.070;24.752;2023-05-03T07:15:28;99628.34;;;15.09;77.95
10948;BME280;5526;42.070;24.752;2023-05-03T07:17:55;99632.00;;;15.53;77.18
10948;BME280;5526;42.070;24.752;2023-05-03T07:20:22;99633.75;;;15.83;75.88
10948;BME280;5526;42.070;24.752;2023-05-03T07:22:50;99627.06;;;16.00;74.05
10948;BME280;5526;42.070;24.752;2023-05-03T07:25:19;99635.13;;;16.29;72.29
10948;BME280;5526;42.070;24.752;2023-05-03T07:27:46;99638.78;;;16.48;70.93
10948;BME280;5526;42.070;24.752;2023-05-03T07:30:13;99636.34;;;16.51;70.60
10948;BME280;5526;42.070;24.752;2023-05-03T07:32:41;99645.19;;;16.37;68.99
10948;BME280;5526;42.070;24.752;2023-05-03T07:35:08;99631.91;;;16.37;69.08
10948;BME280;5526;42.070;24.752;2023-05-03T07:37:35;99632.53;;;16.24;68.21
10948;BME280;5526;42.070;24.752;2023-05-03T07:40:03;99631.06;;;16.46;67.40
10948;BME280;5526;42.070;24.752;2023-05-03T07:42:33;99627.03;;;17.16;64.70
10948;BME280;5526;42.070;24.752;2023-05-03T07:45:00;99622.69;;;17.25;64.27
10948;BME280;5526;42.070;24.752;2023-05-03T07:47:28;99643.88;;;17.07;64.77
10948;BME280;5526;42.070;24.752;2023-05-03T07:49:55;99630.78;;;16.86;64.41
10948;BME280;5526;42.070;24.752;2023-05-03T07:52:21;99620.78;;;16.73;65.55
10948;BME280;5526;42.070;24.752;2023-05-03T07:54:48;99612.72;;;16.83;66.09
10948;BME280;5526;42.070;24.752;2023-05-03T07:57:15;99614.81;;;16.86;65.66
10948;BME280;5526;42.070;24.752;2023-05-03T07:59:44;99593.94;;;16.75;66.14
10948;BME280;5526;42.070;24.752;2023-05-03T08:02:11;99592.94;;;16.94;65.79
10948;BME280;5526;42.070;24.752;2023-05-03T08:04:38;99612.16;;;16.86;66.84
10948;BME280;5526;42.070;24.752;2023-05-03T08:07:05;99611.31;;;17.20;65.77
10948;BME280;5526;42.070;24.752;2023-05-03T08:09:32;99606.72;;;17.25;64.59
10948;BME280;5526;42.070;24.752;2023-05-03T08:12:00;99603.38;;;17.15;64.53
10948;BME280;5526;42.070;24.752;2023-05-03T08:14:28;99607.34;;;17.17;65.30
10948;BME280;5526;42.070;24.752;2023-05-03T08:16:56;99624.16;;;17.41;63.03
10948;BME280;5526;42.070;24.752;2023-05-03T08:19:24;99624.28;;;17.78;62.21
10948;BME280;5526;42.070;24.752;2023-05-03T08:21:51;99612.19;;;17.39;63.16
10948;BME280;5526;42.070;24.752;2023-05-03T08:24:19;99598.31;;;17.89;60.57
10948;BME280;5526;42.070;24.752;2023-05-03T08:26:46;99612.06;;;17.77;57.97
10948;BME280;5526;42.070;24.752;2023-05-03T08:29:13;99608.47;;;17.63;59.41
10948;BME280;5526;42.070;24.752;2023-05-03T08:31:40;99604.69;;;17.46;58.99
10948;BME280;5526;42.070;24.752;2023-05-03T08:34:09;99597.66;;;17.78;58.27
10948;BME280;5526;42.070;24.752;2023-05-03T08:36:36;99607.06;;;17.71;58.38
10948;BME280;5526;42.070;24.752;2023-05-03T08:39:03;99604.81;;;17.83;57.63
10948;BME280;5526;42.070;24.752;2023-05-03T08:41:31;99607.03;;;17.94;57.29
10948;BME280;5526;42.070;24.752;2023-05-03T08:44:00;99595.19;;;17.82;56.26
10948;BME280;5526;42.070;24.752;2023-05-03T08:46:28;99592.16;;;17.70;56.40
10948;BME280;5526;42.070;24.752;2023-05-03T08:48:55;99590.38;;;17.65;56.51
10948;BME280;5526;42.070;24.752;2023-05-03T08:51:24;99581.69;;;17.97;55.47
10948;BME280;5526;42.070;24.752;2023-05-03T08:53:52;99573.13;;;18.00;55.02
10948;BME280;5526;42.070;24.752;2023-05-03T08:56:24;99569.38;;;18.19;53.76
10948;BME280;5526;42.070;24.752;2023-05-03T08:58:53;99553.31;;;18.06;55.25
10948;BME280;5526;42.070;24.752;2023-05-03T09:01:20;99556.22;;;18.28;56.52
10948;BME280;5526;42.070;24.752;2023-05-03T09:03:49;99561.53;;;18.28;54.87
10948;BME280;5526;42.070;24.752;2023-05-03T09:06:21;99583.78;;;18.74;53.47
10948;BME280;5526;42.070;24.752;2023-05-03T09:08:52;99572.25;;;19.37;51.36
10948;BME280;5526;42.070;24.752;2023-05-03T09:11:20;99574.75;;;19.15;53.18
10948;BME280;5526;42.070;24.752;2023-05-03T09:13:49;99570.22;;;19.16;53.96
10948;BME280;5526;42.070;24.752;2023-05-03T09:16:25;99567.00;;;19.32;51.18
10948;BME280;5526;42.070;24.752;2023-05-03T09:18:57;99560.31;;;19.16;52.30
10948;BME280;5526;42.070;24.752;2023-05-03T09:21:24;99546.59;;;19.23;53.06
10948;BME280;5526;42.070;24.752;2023-05-03T09:23:53;99553.22;;;19.12;52.13
10948;BME280;5526;42.070;24.752;2023-05-03T09:26:30;99544.41;;;18.52;52.77
10948;BME280;5526;42.070;24.752;2023-05-03T09:28:58;99551.50;;;18.57;54.11
10948;BME280;5526;42.070;24.752;2023-05-03T09:31:26;99545.88;;;18.58;54.50
10948;BME280;5526;42.070;24.752;2023-05-03T09:33:57;99545.34;;;19.34;52.52
10948;BME280;5526;42.070;24.752;2023-05-03T09:36:24;99545.91;;;19.71;51.76
10948;BME280;5526;42.070;24.752;2023-05-03T09:38:53;99539.00;;;20.06;52.65
10948;BME280;5526;42.070;24.752;2023-05-03T09:41:27;99543.09;;;20.69;51.74
10948;BME280;5526;42.070;24.752;2023-05-03T09:43:55;99538.75;;;20.51;52.28
10948;BME280;5526;42.070;24.752;2023-05-03T09:46:27;99538.56;;;21.31;49.80
10948;BME280;5526;42.070;24.752;2023-05-03T09:48:55;99540.94;;;20.49;51.95
10948;BME280;5526;42.070;24.752;2023-05-03T09:51:22;99544.56;;;20.09;52.75
10948;BME280;5526;42.070;24.752;2023-05-03T09:53:49;99537.56;;;19.24;56.09
10948;BME280;5526;42.070;24.752;2023-05-03T09:56:19;99542.97;;;19.32;56.00
10948;BME280;5526;42.070;24.752;2023-05-03T09:58:51;99543.28;;;19.93;55.35
10948;BME280;5526;42.070;24.752;2023-05-03T10:01:18;99559.78;;;20.44;53.36
10948;BME280;5526;42.070;24.752;2023-05-03T10:03:48;99552.72;;;19.91;54.13
10948;BME280;5526;42.070;24.752;2023-05-03T10:06:23;99557.59;;;19.35;55.87
10948;BME280;5526;42.070;24.752;2023-05-03T10:08:52;99568.78;;;19.50;55.97
10948;BME280;5526;42.070;24.752;2023-05-03T10:11:25;99560.88;;;19.45;55.82
10948;BME280;5526;42.070;24.752;2023-05-03T10:13:52;99566.09;;;19.77;55.13
10948;BME280;5526;42.070;24.752;2023-05-03T10:16:22;99538.53;;;19.55;55.19
10948;BME280;5526;42.070;24.752;2023-05-03T10:18:55;99548.78;;;19.21;57.64
10948;BME280;5526;42.070;24.752;2023-05-03T10:21:32;99540.75;;;18.94;57.76
10948;BME280;5526;42.070;24.752;2023-05-03T10:24:11;99543.13;;;18.95;57.09
10948;BME280;5526;42.070;24.752;2023-05-03T10:26:41;99540.63;;;20.29;53.43
10948;BME280;5526;42.070;24.752;2023-05-03T10:29:44;99532.69;;;19.39;57.16
10948;BME280;5526;42.070;24.752;2023-05-03T10:32:30;99524.44;;;18.95;59.37
10948;BME280;5526;42.070;24.752;2023-05-03T10:34:59;99532.75;;;18.94;58.75
10948;BME280;5526;42.070;24.752;2023-05-03T10:37:27;99532.19;;;18.65;59.88
10948;BME280;5526;42.070;24.752;2023-05-03T10:39:54;99525.88;;;18.61;60.17
10948;BME280;5526;42.070;24.752;2023-05-03T10:42:23;99518.56;;;18.34;61.17
10948;BME280;5526;42.070;24.752;2023-05-03T10:44:52;99518.97;;;18.41;61.49
10948;BME280;5526;42.070;24.752;2023-05-03T10:47:20;99508.75;;;18.30;61.72
10948;BME280;5526;42.070;24.752;2023-05-03T10:50:23;99505.25;;;17.97;63.87
10948;BME280;5526;42.070;24.752;2023-05-03T10:52:50;99504.09;;;17.85;65.09
10948;BME280;5526;42.070;24.752;2023-05-03T10:55:18;99508.28;;;17.91;65.47
10948;BME280;5526;42.070;24.752;2023-05-03T10:57:48;99514.56;;;17.81;65.64
10948;BME280;5526;42.070;24.752;2023-05-03T11:00:19;99513.91;;;17.89;66.01
10948;BME280;5526;42.070;24.752;2023-05-03T11:03:19;99508.22;;;17.96;66.49
10948;BME280;5526;42.070;24.752;2023-05-03T11:05:54;99505.53;;;17.96;65.85
10948;BME280;5526;42.070;24.752;2023-05-03T11:08:22;99513.38;;;18.06;65.76
10948;BME280;5526;42.070;24.752;2023-05-03T11:10:56;99513.88;;;18.08;65.89
10948;BME280;5526;42.070;24.752;2023-05-03T11:13:24;99507.84;;;18.02;66.29
10948;BME280;5526;42.070;24.752;2023-05-03T11:15:52;99498.97;;;17.88;67.12
10948;BME280;5526;42.070;24.752;2023-05-03T11:18:19;99505.41;;;17.87;67.20
10948;BME280;5526;42.070;24.752;2023-05-03T11:20:46;99505.19;;;17.84;67.88
10948;BME280;5526;42.070;24.752;2023-05-03T11:23:13;99506.84;;;17.80;69.12
10948;BME280;5526;42.070;24.752;2023-05-03T11:25:41;99502.66;;;17.74;70.59
10948;BME280;5526;42.070;24.752;2023-05-03T11:28:08;99498.97;;;17.70;70.70
10948;BME280;5526;42.070;24.752;2023-05-03T11:30:36;99494.81;;;17.64;70.17
10948;BME280;5526;42.070;24.752;2023-05-03T11:33:03;99498.91;;;17.56;70.40
10948;BME280;5526;42.070;24.752;2023-05-03T11:35:30;99497.91;;;17.71;70.32
10948;BME280;5526;42.070;24.752;2023-05-03T11:37:57;99484.75;;;17.61;71.08
10948;BME280;5526;42.070;24.752;2023-05-03T11:40:24;99476.38;;;17.49;71.64
10948;BME280;5526;42.070;24.752;2023-05-03T11:42:55;99474.81;;;17.48;71.76
10948;BME280;5526;42.070;24.752;2023-05-03T11:45:24;99460.63;;;17.52;71.96
10948;BME280;5526;42.070;24.752;2023-05-03T11:47:55;99455.88;;;17.49;71.68
10948;BME280;5526;42.070;24.752;2023-05-03T11:50:43;99451.88;;;17.52;73.30
10948;BME280;5526;42.070;24.752;2023-05-03T11:53:11;99453.53;;;17.48;73.07
10948;BME280;5526;42.070;24.752;2023-05-03T11:55:38;99450.72;;;17.58;72.95
10948;BME280;5526;42.070;24.752;2023-05-03T11:58:08;99454.38;;;17.62;72.84
10948;BME280;5526;42.070;24.752;2023-05-03T12:00:35;99455.53;;;17.56;73.94
10948;BME280;5526;42.070;24.752;2023-05-03T12:03:04;99443.72;;;17.62;73.63
10948;BME280;5526;42.070;24.752;2023-05-03T12:05:32;99433.25;;;17.52;73.70
10948;BME280;5526;42.070;24.752;2023-05-03T12:07:59;99431.44;;;17.66;73.78
10948;BME280;5526;42.070;24.752;2023-05-03T12:10:30;99437.81;;;17.83;73.02
10948;BME280;5526;42.070;24.752;2023-05-03T12:12:58;99438.91;;;17.82;72.67
10948;BME280;5526;42.070;24.752;2023-05-03T12:15:30;99450.19;;;17.93;71.54
10948;BME280;5526;42.070;24.752;2023-05-03T12:17:58;99446.31;;;17.85;72.18
10948;BME280;5526;42.070;24.752;2023-05-03T12:20:28;99438.03;;;17.87;72.06
10948;BME280;5526;42.070;24.752;2023-05-03T12:22:58;99425.63;;;17.64;73.23
10948;BME280;5526;42.070;24.752;2023-05-03T12:25:26;99439.94;;;17.68;72.86
10948;BME280;5526;42.070;24.752;2023-05-03T12:27:54;99440.50;;;17.46;74.18
10948;BME280;5526;42.070;24.752;2023-05-03T12:30:22;99435.03;;;17.56;74.58
10948;BME280;5526;42.070;24.752;2023-05-03T12:32:49;99421.28;;;17.68;74.06
10948;BME280;5526;42.070;24.752;2023-05-03T12:35:17;99423.00;;;17.77;74.32
10948;BME280;5526;42.070;24.752;2023-05-03T12:37:47;99428.91;;;17.74;74.76
10948;BME280;5526;42.070;24.752;2023-05-03T12:40:15;99424.50;;;17.83;73.87
10948;BME280;5526;42.070;24.752;2023-05-03T12:42:42;99419.22;;;17.97;72.74
10948;BME280;5526;42.070;24.752;2023-05-03T12:45:10;99414.75;;;18.11;71.94
10948;BME280;5526;42.070;24.752;2023-05-03T12:47:37;99410.00;;;18.40;69.76
10948;BME280;5526;42.070;24.752;2023-05-03T12:50:06;99407.06;;;18.55;68.55
10948;BME280;5526;42.070;24.752;2023-05-03T12:52:33;99398.25;;;18.41;68.63
10948;BME280;5526;42.070;24.752;2023-05-03T12:55:03;99394.00;;;18.40;68.51
10948;BME280;5526;42.070;24.752;2023-05-03T12:57:31;99392.88;;;18.73;67.33
10948;BME280;5526;42.070;24.752;2023-05-03T12:59:58;99384.75;;;18.51;67.86
10948;BME280;5526;42.070;24.752;2023-05-03T13:02:25;99385.63;;;18.87;67.93
10948;BME280;5526;42.070;24.752;2023-05-03T13:04:52;99384.66;;;18.56;68.61
10948;BME280;5526;42.070;24.752;2023-05-03T13:07:21;99382.81;;;19.32;65.14